sensor_id;sensor_type;location;lat;lon;timestamp;P1;durP1;ratioP1;P2;durP2;ratioP2
76604;SDS011;65496;50.978;16.998;2023-02-01T00:00:20;3.88;;;1.42;;
76604;SDS011;65496;50.978;16.998;2023-02-01T00:03:06;2.25;;;0.98;;
76604;SDS011;65496;50.978;16.998;2023-02-01T00:05:34;2.50;;;1.10;;
76604;SDS011;65496;50.978;16.998;2023-02-01T00:07:59;1.70;;;1.10;;
76604;SDS011;65496;50.978;16.998;2023-02-01T00:10:25;2.00;;;1.13;;
76604;SDS011;65496;50.978;16.998;2023-02-01T00:12:51;2.28;;;1.20;;
76604;SDS011;65496;50.978;16.998;2023-02-01T00:15:17;2.63;;;1.10;;
76604;SDS011;65496;50.978;16.998;2023-02-01T00:17:43;1.88;;;0.90;;
76604;SDS011;65496;50.978;16.998;2023-02-01T00:20:10;4.07;;;1.17;;
76604;SDS011;65496;50.978;16.998;2023-02-01T00:22:36;1.15;;;1.05;;
76604;SDS011;65496;50.978;16.998;2023-02-01T00:25:02;2.33;;;1.30;;
76604;SDS011;65496;50.978;16.998;2023-02-01T00:27:28;2.17;;;0.98;;
76604;SDS011;65496;50.978;16.998;2023-02-01T00:29:55;1.50;;;0.95;;
76604;SDS011;65496;50.978;16.998;2023-02-01T00:32:21;4.75;;;1.40;;
76604;SDS011;65496;50.978;16.998;2023-02-01T00:34:47;3.45;;;1.10;;
76604;SDS011;65496;50.978;16.998;2023-02-01T00:37:12;2.75;;;1.10;;
76604;SDS011;65496;50.978;16.998;2023-02-01T00:39:39;1.55;;;1.20;;
76604;SDS011;65496;50.978;16.998;2023-02-01T00:42:05;1.35;;;0.90;;
76604;SDS011;65496;50.978;16.998;2023-02-01T00:44:31;2.72;;;0.90;;
76604;SDS011;65496;50.978;16.998;2023-02-01T00:46:59;2.15;;;1.27;;
76604;SDS011;65496;50.978;16.998;2023-02-01T00:49:27;2.50;;;1.13;;
76604;SDS011;65496;50.978;16.998;2023-02-01T00:51:53;2.80;;;0.98;;
76604;SDS011;65496;50.978;16.998;2023-02-01T00:54:20;1.50;;;1.00;;
76604;SDS011;65496;50.978;16.998;2023-02-01T00:56:46;1.83;;;0.93;;
76604;SDS011;65496;50.978;16.998;2023-02-01T00:59:12;1.13;;;1.02;;
76604;SDS011;65496;50.978;16.998;2023-02-01T01:01:38;4.97;;;1.08;;
76604;SDS011;65496;50.978;16.998;2023-02-01T01:04:04;1.88;;;1.05;;
76604;SDS011;65496;50.978;16.998;2023-02-01T01:06:31;2.83;;;0.77;;
76604;SDS011;65496;50.978;16.998;2023-02-01T01:08:59;1.50;;;1.00;;
76604;SDS011;65496;50.978;16.998;2023-02-01T01:11:29;2.03;;;1.20;;
76604;SDS011;65496;50.978;16.998;2023-02-01T01:13:57;2.13;;;1.40;;
76604;SDS011;65496;50.978;16.998;2023-02-01T01:16:25;2.28;;;1.20;;
76604;SDS011;65496;50.978;16.998;2023-02-01T01:18:53;1.98;;;1.08;;
76604;SDS011;65496;50.978;16.998;2023-02-01T01:21:20;1.95;;;1.15;;
76604;SDS011;65496;50.978;16.998;2023-02-01T01:23:46;2.53;;;1.27;;
76604;SDS011;65496;50.978;16.998;2023-02-01T01:26:16;3.58;;;1.10;;
76604;SDS011;65496;50.978;16.998;2023-02-01T01:28:48;1.98;;;1.25;;
76604;SDS011;65496;50.978;16.998;2023-02-01T01:31:15;1.90;;;1.10;;
76604;SDS011;65496;50.978;16.998;2023-02-01T01:33:43;1.10;;;0.98;;
76604;SDS011;65496;50.978;16.998;2023-02-01T01:36:09;1.20;;;0.90;;
76604;SDS011;65496;50.978;16.998;2023-02-01T01:38:37;3.10;;;1.08;;
76604;SDS011;65496;50.978;16.998;2023-02-01T01:41:04;2.05;;;1.10;;
76604;SDS011;65496;50.978;16.998;2023-02-01T01:43:50;1.10;;;1.00;;
76604;SDS011;65496;50.978;16.998;2023-02-01T01:46:28;1.58;;;0.95;;
76604;SDS011;65496;50.978;16.998;2023-02-01T01:51:31;1.13;;;0.90;;
76604;SDS011;65496;50.978;16.998;2023-02-01T01:54:03;1.50;;;1.08;;
76604;SDS011;65496;50.978;16.998;2023-02-01T01:57:02;1.35;;;0.80;;
76604;SDS011;65496;50.978;16.998;2023-02-01T01:59:32;2.25;;;1.25;;
76604;SDS011;65496;50.978;16.998;2023-02-01T02:02:01;1.80;;;1.08;;
76604;SDS011;65496;50.978;16.998;2023-02-01T02:04:27;1.92;;;1.30;;
76604;SDS011;65496;50.978;16.998;2023-02-01T02:09:31;3.83;;;1.50;;
76604;SDS011;65496;50.978;16.998;2023-02-01T02:11:57;1.75;;;1.10;;
76604;SDS011;65496;50.978;16.998;2023-02-01T02:14:24;2.70;;;1.50;;
76604;SDS011;65496;50.978;16.998;2023-02-01T02:22:45;1.80;;;1.23;;
76604;SDS011;65496;50.978;16.998;2023-02-01T02:28:13;2.45;;;1.50;;
76604;SDS011;65496;50.978;16.998;2023-02-01T02:37:46;1.83;;;1.20;;
76604;SDS011;65496;50.978;16.998;2023-02-01T02:40:22;2.30;;;1.17;;
76604;SDS011;65496;50.978;16.998;2023-02-01T02:43:18;3.25;;;1.20;;
76604;SDS011;65496;50.978;16.998;2023-02-01T02:46:12;2.65;;;1.60;;
76604;SDS011;65496;50.978;16.998;2023-02-01T02:49:11;2.45;;;1.48;;
76604;SDS011;65496;50.978;16.998;2023-02-01T02:54:46;1.95;;;1.13;;
76604;SDS011;65496;50.978;16.998;2023-02-01T03:00:11;2.05;;;1.10;;
76604;SDS011;65496;50.978;16.998;2023-02-01T03:02:59;2.92;;;1.30;;
76604;SDS011;65496;50.978;16.998;2023-02-01T03:05:45;2.50;;;1.20;;
76604;SDS011;65496;50.978;16.998;2023-02-01T03:08:14;3.28;;;1.52;;
76604;SDS011;65496;50.978;16.998;2023-02-01T03:10:44;2.10;;;1.30;;
76604;SDS011;65496;50.978;16.998;2023-02-01T03:13:48;2.78;;;1.27;;
76604;SDS011;65496;50.978;16.998;2023-02-01T03:16:36;2.63;;;1.58;;
76604;SDS011;65496;50.978;16.998;2023-02-01T03:19:26;3.05;;;1.48;;
76604;SDS011;65496;50.978;16.998;2023-02-01T03:22:05;2.17;;;1.27;;
76604;SDS011;65496;50.978;16.998;2023-02-01T03:24:41;2.35;;;1.45;;
76604;SDS011;65496;50.978;16.998;2023-02-01T03:27:14;5.25;;;1.50;;
76604;SDS011;65496;50.978;16.998;2023-02-01T03:29:48;2.38;;;1.60;;
76604;SDS011;65496;50.978;16.998;2023-02-01T03:32:18;2.92;;;1.42;;
76604;SDS011;65496;50.978;16.998;2023-02-01T03:34:44;1.52;;;1.20;;
76604;SDS011;65496;50.978;16.998;2023-02-01T03:37:11;2.53;;;1.15;;
76604;SDS011;65496;50.978;16.998;2023-02-01T03:39:45;1.98;;;1.30;;
76604;SDS011;65496;50.978;16.998;2023-02-01T03:42:24;3.25;;;1.75;;
76604;SDS011;65496;50.978;16.998;2023-02-01T03:44:57;3.03;;;1.45;;
76604;SDS011;65496;50.978;16.998;2023-02-01T03:47:35;1.90;;;1.10;;
76604;SDS011;65496;50.978;16.998;2023-02-01T03:50:08;3.10;;;1.40;;
76604;SDS011;65496;50.978;16.998;2023-02-01T03:55:26;1.92;;;1.42;;
76604;SDS011;65496;50.978;16.998;2023-02-01T03:57:59;3.28;;;1.40;;
76604;SDS011;65496;50.978;16.998;2023-02-01T04:00:38;2.03;;;1.40;;
76604;SDS011;65496;50.978;16.998;2023-02-01T04:03:05;4.85;;;1.90;;
76604;SDS011;65496;50.978;16.998;2023-02-01T04:05:32;2.33;;;1.35;;
76604;SDS011;65496;50.978;16.998;2023-02-01T04:07:59;2.75;;;1.48;;
76604;SDS011;65496;50.978;16.998;2023-02-01T04:10:25;2.20;;;1.40;;
76604;SDS011;65496;50.978;16.998;2023-02-01T04:12:51;2.83;;;1.50;;
76604;SDS011;65496;50.978;16.998;2023-02-01T04:15:17;2.88;;;1.70;;
76604;SDS011;65496;50.978;16.998;2023-02-01T04:17:44;4.53;;;1.63;;
76604;SDS011;65496;50.978;16.998;2023-02-01T04:20:10;2.20;;;1.40;;
76604;SDS011;65496;50.978;16.998;2023-02-01T04:22:37;2.65;;;1.35;;
76604;SDS011;65496;50.978;16.998;2023-02-01T04:25:03;2.67;;;1.50;;
76604;SDS011;65496;50.978;16.998;2023-02-01T04:27:31;3.47;;;1.52;;
76604;SDS011;65496;50.978;16.998;2023-02-01T04:29:57;2.72;;;1.58;;
76604;SDS011;65496;50.978;16.998;2023-02-01T04:32:23;2.70;;;1.45;;
76604;SDS011;65496;50.978;16.998;2023-02-01T04:34:49;3.85;;;1.55;;
76604;SDS011;65496;50.978;16.998;2023-02-01T04:37:15;2.63;;;1.50;;
76604;SDS011;65496;50.978;16.998;2023-02-01T04:39:41;4.78;;;2.13;;
76604;SDS011;65496;50.978;16.998;2023-02-01T04:42:07;3.13;;;1.70;;
76604;SDS011;65496;50.978;16.998;2023-02-01T04:44:33;3.83;;;1.83;;
76604;SDS011;65496;50.978;16.998;2023-02-01T04:47:02;2.63;;;1.60;;
76604;SDS011;65496;50.978;16.998;2023-02-01T04:49:28;4.45;;;1.60;;
76604;SDS011;65496;50.978;16.998;2023-02-01T04:51:54;1.48;;;1.17;;
76604;SDS011;65496;50.978;16.998;2023-02-01T04:54:20;4.55;;;1.60;;
76604;SDS011;65496;50.978;16.998;2023-02-01T04:56:46;4.97;;;1.45;;
76604;SDS011;65496;50.978;16.998;2023-02-01T04:59:12;2.35;;;1.40;;
76604;SDS011;65496;50.978;16.998;2023-02-01T05:01:38;3.35;;;1.42;;
76604;SDS011;65496;50.978;16.998;2023-02-01T05:04:04;4.47;;;2.03;;
76604;SDS011;65496;50.978;16.998;2023-02-01T05:06:30;3.38;;;1.73;;
76604;SDS011;65496;50.978;16.998;2023-02-01T05:08:56;4.40;;;1.42;;
76604;SDS011;65496;50.978;16.998;2023-02-01T05:11:22;3.95;;;1.75;;
76604;SDS011;65496;50.978;16.998;2023-02-01T05:14:06;4.57;;;1.55;;
76604;SDS011;65496;50.978;16.998;2023-02-01T05:16:32;8.45;;;1.92;;
76604;SDS011;65496;50.978;16.998;2023-02-01T05:18:58;3.53;;;1.42;;
76604;SDS011;65496;50.978;16.998;2023-02-01T05:21:24;2.42;;;1.42;;
76604;SDS011;65496;50.978;16.998;2023-02-01T05:23:50;4.95;;;1.70;;
76604;SDS011;65496;50.978;16.998;2023-02-01T05:26:35;2.28;;;1.30;;
76604;SDS011;65496;50.978;16.998;2023-02-01T05:29:03;3.80;;;1.65;;
76604;SDS011;65496;50.978;16.998;2023-02-01T05:31:30;2.50;;;1.50;;
76604;SDS011;65496;50.978;16.998;2023-02-01T05:33:56;2.85;;;1.30;;
76604;SDS011;65496;50.978;16.998;2023-02-01T05:36:23;4.28;;;1.48;;
76604;SDS011;65496;50.978;16.998;2023-02-01T05:38:49;2.78;;;1.55;;
76604;SDS011;65496;50.978;16.998;2023-02-01T05:41:15;2.45;;;1.45;;
76604;SDS011;65496;50.978;16.998;2023-02-01T05:43:41;2.97;;;1.40;;
76604;SDS011;65496;50.978;16.998;2023-02-01T05:46:07;7.60;;;1.85;;
76604;SDS011;65496;50.978;16.998;2023-02-01T05:48:36;3.22;;;1.40;;
76604;SDS011;65496;50.978;16.998;2023-02-01T05:51:02;2.75;;;1.35;;
76604;SDS011;65496;50.978;16.998;2023-02-01T05:53:28;2.58;;;1.60;;
76604;SDS011;65496;50.978;16.998;2023-02-01T05:55:54;2.28;;;1.40;;
76604;SDS011;65496;50.978;16.998;2023-02-01T05:58:20;3.65;;;1.40;;
76604;SDS011;65496;50.978;16.998;2023-02-01T06:00:46;3.63;;;1.58;;
76604;SDS011;65496;50.978;16.998;2023-02-01T06:03:12;1.88;;;1.13;;
76604;SDS011;65496;50.978;16.998;2023-02-01T06:05:38;3.65;;;1.63;;
76604;SDS011;65496;50.978;16.998;2023-02-01T06:08:04;3.85;;;1.67;;
76604;SDS011;65496;50.978;16.998;2023-02-01T06:10:33;5.28;;;1.50;;
76604;SDS011;65496;50.978;16.998;2023-02-01T06:12:59;3.03;;;1.23;;
76604;SDS011;65496;50.978;16.998;2023-02-01T06:15:25;2.33;;;1.40;;
76604;SDS011;65496;50.978;16.998;2023-02-01T06:17:51;2.45;;;1.30;;
76604;SDS011;65496;50.978;16.998;2023-02-01T06:20:17;6.30;;;1.75;;
76604;SDS011;65496;50.978;16.998;2023-02-01T06:22:43;3.88;;;1.73;;
76604;SDS011;65496;50.978;16.998;2023-02-01T06:25:10;2.50;;;1.20;;
76604;SDS011;65496;50.978;16.998;2023-02-01T06:27:36;5.78;;;1.58;;
76604;SDS011;65496;50.978;16.998;2023-02-01T06:30:03;3.15;;;1.80;;
76604;SDS011;65496;50.978;16.998;2023-02-01T06:32:30;2.65;;;1.63;;
76604;SDS011;65496;50.978;16.998;2023-02-01T06:34:56;4.13;;;1.80;;
76604;SDS011;65496;50.978;16.998;2023-02-01T06:37:23;2.95;;;1.63;;
76604;SDS011;65496;50.978;16.998;2023-02-01T06:39:55;6.57;;;1.67;;
76604;SDS011;65496;50.978;16.998;2023-02-01T06:42:21;5.05;;;1.75;;
76604;SDS011;65496;50.978;16.998;2023-02-01T06:44:48;3.95;;;1.52;;
76604;SDS011;65496;50.978;16.998;2023-02-01T06:47:14;3.53;;;1.60;;
76604;SDS011;65496;50.978;16.998;2023-02-01T06:49:40;6.75;;;1.55;;
76604;SDS011;65496;50.978;16.998;2023-02-01T06:52:06;5.32;;;1.80;;
76604;SDS011;65496;50.978;16.998;2023-02-01T06:54:32;5.45;;;1.85;;
76604;SDS011;65496;50.978;16.998;2023-02-01T06:56:59;3.97;;;1.45;;
76604;SDS011;65496;50.978;16.998;2023-02-01T06:59:25;3.85;;;1.60;;
76604;SDS011;65496;50.978;16.998;2023-02-01T07:01:51;2.55;;;1.42;;
76604;SDS011;65496;50.978;16.998;2023-02-01T07:04:17;4.82;;;1.50;;
76604;SDS011;65496;50.978;16.998;2023-02-01T07:06:43;4.15;;;1.45;;
76604;SDS011;65496;50.978;16.998;2023-02-01T07:09:09;1.83;;;1.05;;
76604;SDS011;65496;50.978;16.998;2023-02-01T07:11:37;1.77;;;1.30;;
76604;SDS011;65496;50.978;16.998;2023-02-01T07:14:06;3.63;;;1.40;;
76604;SDS011;65496;50.978;16.998;2023-02-01T07:16:32;2.00;;;1.27;;
76604;SDS011;65496;50.978;16.998;2023-02-01T07:18:58;2.20;;;1.10;;
76604;SDS011;65496;50.978;16.998;2023-02-01T07:21:25;4.60;;;1.20;;
76604;SDS011;65496;50.978;16.998;2023-02-01T07:23:53;2.50;;;1.30;;
76604;SDS011;65496;50.978;16.998;2023-02-01T07:26:20;2.20;;;1.25;;
76604;SDS011;65496;50.978;16.998;2023-02-01T07:28:46;2.13;;;1.30;;
76604;SDS011;65496;50.978;16.998;2023-02-01T07:31:13;3.03;;;1.45;;
76604;SDS011;65496;50.978;16.998;2023-02-01T07:33:41;2.90;;;1.48;;
76604;SDS011;65496;50.978;16.998;2023-02-01T07:36:10;3.75;;;1.42;;
76604;SDS011;65496;50.978;16.998;2023-02-01T07:38:40;2.47;;;1.45;;
76604;SDS011;65496;50.978;16.998;2023-02-01T07:41:07;2.10;;;1.40;;
76604;SDS011;65496;50.978;16.998;2023-02-01T07:43:34;4.15;;;1.48;;
76604;SDS011;65496;50.978;16.998;2023-02-01T07:46:00;3.70;;;1.48;;
76604;SDS011;65496;50.978;16.998;2023-02-01T07:48:28;2.95;;;1.40;;
76604;SDS011;65496;50.978;16.998;2023-02-01T07:51:13;5.78;;;1.60;;
76604;SDS011;65496;50.978;16.998;2023-02-01T07:53:41;3.90;;;1.52;;
76604;SDS011;65496;50.978;16.998;2023-02-01T07:56:11;2.72;;;1.42;;
76604;SDS011;65496;50.978;16.998;2023-02-01T07:58:42;3.55;;;1.40;;
76604;SDS011;65496;50.978;16.998;2023-02-01T08:01:22;1.88;;;1.20;;
76604;SDS011;65496;50.978;16.998;2023-02-01T08:03:50;3.67;;;1.70;;
76604;SDS011;65496;50.978;16.998;2023-02-01T08:06:18;2.38;;;1.45;;
76604;SDS011;65496;50.978;16.998;2023-02-01T08:08:46;2.85;;;1.40;;
76604;SDS011;65496;50.978;16.998;2023-02-01T08:11:13;2.63;;;1.42;;
76604;SDS011;65496;50.978;16.998;2023-02-01T08:13:39;4.70;;;1.35;;
76604;SDS011;65496;50.978;16.998;2023-02-01T08:16:06;2.15;;;1.55;;
76604;SDS011;65496;50.978;16.998;2023-02-01T08:18:34;3.05;;;1.98;;
76604;SDS011;65496;50.978;16.998;2023-02-01T08:21:04;3.85;;;1.42;;
76604;SDS011;65496;50.978;16.998;2023-02-01T08:23:36;2.10;;;1.42;;
76604;SDS011;65496;50.978;16.998;2023-02-01T08:26:13;2.85;;;1.50;;
76604;SDS011;65496;50.978;16.998;2023-02-01T08:28:42;3.03;;;1.50;;
76604;SDS011;65496;50.978;16.998;2023-02-01T08:31:12;3.60;;;2.15;;
76604;SDS011;65496;50.978;16.998;2023-02-01T08:33:43;3.78;;;1.50;;
76604;SDS011;65496;50.978;16.998;2023-02-01T08:36:12;3.80;;;1.70;;
76604;SDS011;65496;50.978;16.998;2023-02-01T08:38:39;3.47;;;1.70;;
76604;SDS011;65496;50.978;16.998;2023-02-01T08:41:09;3.80;;;1.67;;
76604;SDS011;65496;50.978;16.998;2023-02-01T08:43:37;2.60;;;1.65;;
76604;SDS011;65496;50.978;16.998;2023-02-01T08:46:04;4.70;;;1.77;;
76604;SDS011;65496;50.978;16.998;2023-02-01T08:48:31;3.55;;;1.80;;
76604;SDS011;65496;50.978;16.998;2023-02-01T08:50:57;2.35;;;1.55;;
76604;SDS011;65496;50.978;16.998;2023-02-01T08:53:26;6.32;;;1.70;;
76604;SDS011;65496;50.978;16.998;2023-02-01T08:55:52;2.58;;;1.55;;
76604;SDS011;65496;50.978;16.998;2023-02-01T08:58:18;2.75;;;1.65;;
76604;SDS011;65496;50.978;16.998;2023-02-01T09:00:45;2.72;;;1.77;;
76604;SDS011;65496;50.978;16.998;2023-02-01T09:03:11;2.83;;;1.60;;
76604;SDS011;65496;50.978;16.998;2023-02-01T09:05:37;2.92;;;1.75;;
76604;SDS011;65496;50.978;16.998;2023-02-01T09:08:04;2.92;;;1.73;;
76604;SDS011;65496;50.978;16.998;2023-02-01T09:10:30;2.97;;;1.42;;
76604;SDS011;65496;50.978;16.998;2023-02-01T09:12:57;2.20;;;1.50;;
76604;SDS011;65496;50.978;16.998;2023-02-01T09:15:23;4.47;;;1.58;;
76604;SDS011;65496;50.978;16.998;2023-02-01T09:17:49;3.55;;;1.50;;
76604;SDS011;65496;50.978;16.998;2023-02-01T09:20:15;4.72;;;2.15;;
76604;SDS011;65496;50.978;16.998;2023-02-01T09:22:42;1.92;;;1.30;;
76604;SDS011;65496;50.978;16.998;2023-02-01T09:25:08;3.30;;;1.63;;
76604;SDS011;65496;50.978;16.998;2023-02-01T09:27:34;3.00;;;1.70;;
76604;SDS011;65496;50.978;16.998;2023-02-01T09:30:01;3.20;;;1.63;;
76604;SDS011;65496;50.978;16.998;2023-02-01T09:32:28;2.33;;;1.50;;
76604;SDS011;65496;50.978;16.998;2023-02-01T09:34:53;3.08;;;1.50;;
76604;SDS011;65496;50.978;16.998;2023-02-01T09:37:20;3.67;;;1.40;;
76604;SDS011;65496;50.978;16.998;2023-02-01T09:39:46;2.78;;;1.40;;
76604;SDS011;65496;50.978;16.998;2023-02-01T09:42:16;2.53;;;1.50;;
76604;SDS011;65496;50.978;16.998;2023-02-01T09:45:15;2.08;;;1.42;;
76604;SDS011;65496;50.978;16.998;2023-02-01T09:47:48;3.00;;;1.60;;
76604;SDS011;65496;50.978;16.998;2023-02-01T09:50:17;2.05;;;1.30;;
76604;SDS011;65496;50.978;16.998;2023-02-01T09:52:54;2.45;;;1.63;;
76604;SDS011;65496;50.978;16.998;2023-02-01T09:58:01;2.22;;;1.50;;
76604;SDS011;65496;50.978;16.998;2023-02-01T10:00:36;3.97;;;1.50;;
76604;SDS011;65496;50.978;16.998;2023-02-01T10:03:04;2.70;;;1.50;;
76604;SDS011;65496;50.978;16.998;2023-02-01T10:05:55;2.75;;;1.58;;
76604;SDS011;65496;50.978;16.998;2023-02-01T10:09:08;2.13;;;1.40;;
76604;SDS011;65496;50.978;16.998;2023-02-01T10:17:31;2.17;;;1.50;;
76604;SDS011;65496;50.978;16.998;2023-02-01T10:25:54;2.15;;;1.30;;
76604;SDS011;65496;50.978;16.998;2023-02-01T10:28:39;3.17;;;1.40;;
76604;SDS011;65496;50.978;16.998;2023-02-01T10:31:06;2.45;;;1.50;;
76604;SDS011;65496;50.978;16.998;2023-02-01T10:33:36;2.30;;;1.52;;
76604;SDS011;65496;50.978;16.998;2023-02-01T10:36:16;2.78;;;1.65;;
76604;SDS011;65496;50.978;16.998;2023-02-01T10:38:47;2.50;;;1.65;;
76604;SDS011;65496;50.978;16.998;2023-02-01T10:41:17;2.47;;;1.60;;
76604;SDS011;65496;50.978;16.998;2023-02-01T10:43:48;2.00;;;1.20;;
76604;SDS011;65496;50.978;16.998;2023-02-01T10:46:20;3.30;;;1.50;;
76604;SDS011;65496;50.978;16.998;2023-02-01T10:48:48;1.63;;;1.20;;
76604;SDS011;65496;50.978;16.998;2023-02-01T10:51:23;2.85;;;1.50;;
76604;SDS011;65496;50.978;16.998;2023-02-01T10:56:25;4.13;;;1.77;;
76604;SDS011;65496;50.978;16.998;2023-02-01T10:58:59;3.10;;;1.55;;
76604;SDS011;65496;50.978;16.998;2023-02-01T11:01:40;3.47;;;1.30;;
76604;SDS011;65496;50.978;16.998;2023-02-01T11:04:11;3.42;;;1.67;;
76604;SDS011;65496;50.978;16.998;2023-02-01T11:06:40;2.47;;;1.55;;
76604;SDS011;65496;50.978;16.998;2023-02-01T11:12:01;3.20;;;1.42;;
76604;SDS011;65496;50.978;16.998;2023-02-01T11:19:47;2.40;;;1.60;;
76604;SDS011;65496;50.978;16.998;2023-02-01T11:22:24;3.50;;;1.70;;
76604;SDS011;65496;50.978;16.998;2023-02-01T11:24:52;3.30;;;1.52;;
76604;SDS011;65496;50.978;16.998;2023-02-01T11:27:19;2.65;;;1.67;;
76604;SDS011;65496;50.978;16.998;2023-02-01T11:29:49;3.28;;;1.60;;
76604;SDS011;65496;50.978;16.998;2023-02-01T11:32:18;3.47;;;1.70;;
76604;SDS011;65496;50.978;16.998;2023-02-01T11:34:51;2.60;;;1.50;;
76604;SDS011;65496;50.978;16.998;2023-02-01T11:37:24;2.35;;;1.45;;
76604;SDS011;65496;50.978;16.998;2023-02-01T11:39:54;2.30;;;1.60;;
76604;SDS011;65496;50.978;16.998;2023-02-01T11:42:23;3.50;;;1.70;;
76604;SDS011;65496;50.978;16.998;2023-02-01T11:44:49;3.75;;;1.83;;
76604;SDS011;65496;50.978;16.998;2023-02-01T11:47:23;2.05;;;1.50;;
76604;SDS011;65496;50.978;16.998;2023-02-01T11:49:57;2.55;;;1.45;;
76604;SDS011;65496;50.978;16.998;2023-02-01T12:05:52;3.55;;;1.50;;
76604;SDS011;65496;50.978;16.998;2023-02-01T12:14:22;3.92;;;1.70;;
76604;SDS011;65496;50.978;16.998;2023-02-01T12:25:20;2.78;;;1.20;;
76604;SDS011;65496;50.978;16.998;2023-02-01T12:44:34;2.47;;;1.35;;
76604;SDS011;65496;50.978;16.998;2023-02-01T12:47:27;1.67;;;1.40;;
76604;SDS011;65496;50.978;16.998;2023-02-01T12:50:03;2.50;;;1.70;;
76604;SDS011;65496;50.978;16.998;2023-02-01T12:55:23;3.50;;;1.58;;
76604;SDS011;65496;50.978;16.998;2023-02-01T12:58:02;2.60;;;1.50;;
76604;SDS011;65496;50.978;16.998;2023-02-01T13:00:41;1.58;;;1.20;;
76604;SDS011;65496;50.978;16.998;2023-02-01T13:05:51;2.17;;;1.60;;
76604;SDS011;65496;50.978;16.998;2023-02-01T13:08:25;2.60;;;1.42;;
76604;SDS011;65496;50.978;16.998;2023-02-01T13:11:26;2.08;;;1.50;;
76604;SDS011;65496;50.978;16.998;2023-02-01T13:16:48;2.60;;;1.63;;
76604;SDS011;65496;50.978;16.998;2023-02-01T13:21:48;2.75;;;1.33;;
76604;SDS011;65496;50.978;16.998;2023-02-01T13:24:32;1.98;;;1.30;;
76604;SDS011;65496;50.978;16.998;2023-02-01T13:27:04;2.67;;;1.38;;
76604;SDS011;65496;50.978;16.998;2023-02-01T13:29:31;3.17;;;1.55;;
76604;SDS011;65496;50.978;16.998;2023-02-01T13:32:18;2.10;;;1.70;;
76604;SDS011;65496;50.978;16.998;2023-02-01T13:35:19;2.10;;;1.40;;
76604;SDS011;65496;50.978;16.998;2023-02-01T13:38:07;2.58;;;1.50;;
76604;SDS011;65496;50.978;16.998;2023-02-01T13:41:09;3.08;;;1.58;;
76604;SDS011;65496;50.978;16.998;2023-02-01T13:43:40;1.92;;;1.33;;
76604;SDS011;65496;50.978;16.998;2023-02-01T13:46:10;2.33;;;1.33;;
76604;SDS011;65496;50.978;16.998;2023-02-01T13:53:59;3.78;;;1.40;;
76604;SDS011;65496;50.978;16.998;2023-02-01T13:56:25;2.28;;;1.48;;
76604;SDS011;65496;50.978;16.998;2023-02-01T13:58:52;1.85;;;1.50;;
76604;SDS011;65496;50.978;16.998;2023-02-01T14:11:38;2.33;;;1.60;;
76604;SDS011;65496;50.978;16.998;2023-02-01T14:19:22;3.15;;;1.58;;
76604;SDS011;65496;50.978;16.998;2023-02-01T14:24:43;2.55;;;1.85;;
76604;SDS011;65496;50.978;16.998;2023-02-01T14:27:26;1.80;;;1.40;;
76604;SDS011;65496;50.978;16.998;2023-02-01T14:29:58;2.45;;;1.50;;
76604;SDS011;65496;50.978;16.998;2023-02-01T14:32:31;1.40;;;1.15;;
76604;SDS011;65496;50.978;16.998;2023-02-01T14:34:59;2.05;;;1.52;;
76604;SDS011;65496;50.978;16.998;2023-02-01T14:37:32;2.00;;;1.60;;
76604;SDS011;65496;50.978;16.998;2023-02-01T14:42:37;2.45;;;1.40;;
76604;SDS011;65496;50.978;16.998;2023-02-01T14:47:46;2.22;;;1.50;;
76604;SDS011;65496;50.978;16.998;2023-02-01T14:53:04;1.77;;;1.30;;
76604;SDS011;65496;50.978;16.998;2023-02-01T14:55:41;2.50;;;1.45;;
76604;SDS011;65496;50.978;16.998;2023-02-01T15:00:54;2.38;;;1.63;;
76604;SDS011;65496;50.978;16.998;2023-02-01T15:05:54;3.40;;;1.50;;
76604;SDS011;65496;50.978;16.998;2023-02-01T15:08:28;1.92;;;1.40;;
76604;SDS011;65496;50.978;16.998;2023-02-01T15:10:58;2.65;;;1.70;;
76604;SDS011;65496;50.978;16.998;2023-02-01T15:13:28;12.15;;;1.70;;
76604;SDS011;65496;50.978;16.998;2023-02-01T15:16:10;1.98;;;1.40;;
76604;SDS011;65496;50.978;16.998;2023-02-01T15:18:39;2.92;;;1.58;;
76604;SDS011;65496;50.978;16.998;2023-02-01T15:21:19;3.30;;;1.40;;
76604;SDS011;65496;50.978;16.998;2023-02-01T15:23:47;2.15;;;1.25;;
76604;SDS011;65496;50.978;16.998;2023-02-01T15:26:26;3.35;;;2.10;;
76604;SDS011;65496;50.978;16.998;2023-02-01T15:28:56;2.63;;;1.90;;
76604;SDS011;65496;50.978;16.998;2023-02-01T15:31:37;3.05;;;1.60;;
76604;SDS011;65496;50.978;16.998;2023-02-01T15:34:08;1.67;;;1.30;;
76604;SDS011;65496;50.978;16.998;2023-02-01T15:36:34;2.15;;;1.52;;
76604;SDS011;65496;50.978;16.998;2023-02-01T15:39:19;3.20;;;1.60;;
76604;SDS011;65496;50.978;16.998;2023-02-01T15:42:30;3.65;;;1.75;;
76604;SDS011;65496;50.978;16.998;2023-02-01T15:44:45;3.10;;;1.40;;
76604;SDS011;65496;50.978;16.998;2023-02-01T15:47:15;4.32;;;1.80;;
76604;SDS011;65496;50.978;16.998;2023-02-01T15:49:45;3.42;;;2.00;;
76604;SDS011;65496;50.978;16.998;2023-02-01T15:52:19;2.85;;;1.80;;
76604;SDS011;65496;50.978;16.998;2023-02-01T15:54:47;3.15;;;1.58;;
76604;SDS011;65496;50.978;16.998;2023-02-01T15:57:25;3.75;;;1.52;;
76604;SDS011;65496;50.978;16.998;2023-02-01T15:59:57;2.50;;;1.50;;
76604;SDS011;65496;50.978;16.998;2023-02-01T16:04:59;4.80;;;1.80;;
76604;SDS011;65496;50.978;16.998;2023-02-01T16:07:30;3.50;;;1.38;;
76604;SDS011;65496;50.978;16.998;2023-02-01T16:09:58;2.80;;;1.58;;
76604;SDS011;65496;50.978;16.998;2023-02-01T16:15:04;3.10;;;1.73;;
76604;SDS011;65496;50.978;16.998;2023-02-01T16:17:31;1.98;;;1.40;;
76604;SDS011;65496;50.978;16.998;2023-02-01T16:19:57;2.03;;;1.45;;
76604;SDS011;65496;50.978;16.998;2023-02-01T16:22:24;3.15;;;1.38;;
76604;SDS011;65496;50.978;16.998;2023-02-01T16:24:51;2.45;;;1.40;;
76604;SDS011;65496;50.978;16.998;2023-02-01T16:27:17;2.75;;;1.63;;
76604;SDS011;65496;50.978;16.998;2023-02-01T16:29:43;3.33;;;1.95;;
76604;SDS011;65496;50.978;16.998;2023-02-01T16:32:19;2.97;;;1.85;;
76604;SDS011;65496;50.978;16.998;2023-02-01T16:34:47;3.65;;;2.08;;
76604;SDS011;65496;50.978;16.998;2023-02-01T16:37:18;3.25;;;1.90;;
76604;SDS011;65496;50.978;16.998;2023-02-01T16:39:47;4.25;;;2.10;;
76604;SDS011;65496;50.978;16.998;2023-02-01T16:42:13;5.28;;;2.00;;
76604;SDS011;65496;50.978;16.998;2023-02-01T16:44:40;3.70;;;2.00;;
76604;SDS011;65496;50.978;16.998;2023-02-01T16:47:17;5.20;;;2.20;;
76604;SDS011;65496;50.978;16.998;2023-02-01T16:49:45;5.07;;;2.10;;
76604;SDS011;65496;50.978;16.998;2023-02-01T16:52:19;2.35;;;1.80;;
76604;SDS011;65496;50.978;16.998;2023-02-01T16:54:50;3.75;;;2.03;;
76604;SDS011;65496;50.978;16.998;2023-02-01T16:57:18;5.32;;;2.22;;
76604;SDS011;65496;50.978;16.998;2023-02-01T16:59:48;3.92;;;1.90;;
76604;SDS011;65496;50.978;16.998;2023-02-01T17:02:15;4.65;;;2.38;;
76604;SDS011;65496;50.978;16.998;2023-02-01T17:04:45;5.45;;;2.45;;
76604;SDS011;65496;50.978;16.998;2023-02-01T17:07:15;6.00;;;2.45;;
76604;SDS011;65496;50.978;16.998;2023-02-01T17:09:43;4.30;;;2.38;;
76604;SDS011;65496;50.978;16.998;2023-02-01T17:12:23;4.38;;;2.03;;
76604;SDS011;65496;50.978;16.998;2023-02-01T17:14:51;5.40;;;2.40;;
76604;SDS011;65496;50.978;16.998;2023-02-01T17:17:21;4.72;;;2.55;;
76604;SDS011;65496;50.978;16.998;2023-02-01T17:19:49;6.05;;;2.50;;
76604;SDS011;65496;50.978;16.998;2023-02-01T17:22:19;3.80;;;2.05;;
76604;SDS011;65496;50.978;16.998;2023-02-01T17:24:46;3.65;;;1.80;;